sensor_id;sensor_type;location;lat;lon;timestamp;P1;durP1;ratioP1;P2;durP2;ratioP2
1693;SDS011;71975;47.068;15.408;2023-08-08T00:01:40;1.73;;;1.63;;
1693;SDS011;71975;47.068;15.408;2023-08-08T00:06:44;1.67;;;1.30;;
1693;SDS011;71975;47.068;15.408;2023-08-08T00:11:47;3.33;;;1.97;;
1693;SDS011;71975;47.068;15.408;2023-08-08T00:16:51;2.53;;;1.70;;
1693;SDS011;71975;47.068;15.408;2023-08-08T00:21:56;4.90;;;2.00;;
1693;SDS011;71975;47.068;15.408;2023-08-08T00:27:01;1.97;;;1.20;;
1693;SDS011;71975;47.068;15.408;2023-08-08T00:32:06;4.60;;;2.23;;
1693;SDS011;71975;47.068;15.408;2023-08-08T00:37:09;2.53;;;1.77;;
1693;SDS011;71975;47.068;15.408;2023-08-08T00:42:12;3.43;;;1.77;;
1693;SDS011;71975;47.068;15.408;2023-08-08T00:47:16;2.47;;;1.53;;
1693;SDS011;71975;47.068;15.408;2023-08-08T00:52:19;3.00;;;1.90;;
1693;SDS011;71975;47.068;15.408;2023-08-08T00:57:22;4.77;;;2.20;;
1693;SDS011;71975;47.068;15.408;2023-08-08T01:02:27;5.13;;;2.00;;
1693;SDS011;71975;47.068;15.408;2023-08-08T01:07:30;2.63;;;2.10;;
1693;SDS011;71975;47.068;15.408;2023-08-08T01:12:39;5.73;;;2.30;;
1693;SDS011;71975;47.068;15.408;2023-08-08T01:17:46;4.57;;;1.83;;
1693;SDS011;71975;47.068;15.408;2023-08-08T01:22:50;4.57;;;1.90;;
1693;SDS011;71975;47.068;15.408;2023-08-08T01:28:02;2.30;;;1.73;;
1693;SDS011;71975;47.068;15.408;2023-08-08T01:33:06;3.07;;;2.27;;
1693;SDS011;71975;47.068;15.408;2023-08-08T01:38:11;2.00;;;1.50;;
1693;SDS011;71975;47.068;15.408;2023-08-08T01:43:21;1.77;;;1.47;;
1693;SDS011;71975;47.068;15.408;2023-08-08T01:48:27;1.90;;;1.70;;
1693;SDS011;71975;47.068;15.408;2023-08-08T01:53:30;3.20;;;1.57;;
1693;SDS011;71975;47.068;15.408;2023-08-08T01:58:34;3.20;;;1.80;;
1693;SDS011;71975;47.068;15.408;2023-08-08T02:03:37;3.23;;;2.17;;
1693;SDS011;71975;47.068;15.408;2023-08-08T02:08:40;5.03;;;2.50;;
1693;SDS011;71975;47.068;15.408;2023-08-08T02:13:45;3.40;;;1.83;;
1693;SDS011;71975;47.068;15.408;2023-08-08T02:18:48;3.13;;;2.50;;
1693;SDS011;71975;47.068;15.408;2023-08-08T02:23:50;2.90;;;2.43;;
1693;SDS011;71975;47.068;15.408;2023-08-08T02:28:55;3.50;;;2.00;;
1693;SDS011;71975;47.068;15.408;2023-08-08T02:33:58;3.17;;;2.20;;
1693;SDS011;71975;47.068;15.408;2023-08-08T02:39:00;2.73;;;2.00;;
1693;SDS011;71975;47.068;15.408;2023-08-08T02:44:06;3.40;;;2.70;;
1693;SDS011;71975;47.068;15.408;2023-08-08T02:49:08;1.97;;;1.80;;
1693;SDS011;71975;47.068;15.408;2023-08-08T02:54:11;2.40;;;1.87;;
1693;SDS011;71975;47.068;15.408;2023-08-08T02:59:16;3.60;;;1.80;;
1693;SDS011;71975;47.068;15.408;2023-08-08T03:04:18;5.17;;;2.03;;
1693;SDS011;71975;47.068;15.408;2023-08-08T03:09:21;6.90;;;3.63;;
1693;SDS011;71975;47.068;15.408;2023-08-08T03:14:26;5.50;;;5.00;;
1693;SDS011;71975;47.068;15.408;2023-08-08T03:19:28;3.10;;;2.80;;
1693;SDS011;71975;47.068;15.408;2023-08-08T03:24:31;2.10;;;1.87;;
1693;SDS011;71975;47.068;15.408;2023-08-08T03:29:35;5.10;;;2.30;;
1693;SDS011;71975;47.068;15.408;2023-08-08T03:34:38;2.90;;;2.10;;
1693;SDS011;71975;47.068;15.408;2023-08-08T03:39:41;2.10;;;1.40;;
1693;SDS011;71975;47.068;15.408;2023-08-08T03:44:46;2.60;;;2.13;;
1693;SDS011;71975;47.068;15.408;2023-08-08T03:49:48;2.90;;;2.10;;
1693;SDS011;71975;47.068;15.408;2023-08-08T03:54:51;3.03;;;1.93;;
1693;SDS011;71975;47.068;15.408;2023-08-08T03:59:55;2.43;;;2.23;;
1693;SDS011;71975;47.068;15.408;2023-08-08T04:04:58;5.83;;;1.93;;
1693;SDS011;71975;47.068;15.408;2023-08-08T04:10:01;4.53;;;2.10;;
1693;SDS011;71975;47.068;15.408;2023-08-08T04:15:06;2.47;;;1.80;;
1693;SDS011;71975;47.068;15.408;2023-08-08T04:20:11;3.30;;;2.17;;
1693;SDS011;71975;47.068;15.408;2023-08-08T04:25:14;9.03;;;7.83;;
1693;SDS011;71975;47.068;15.408;2023-08-08T04:30:19;4.53;;;4.00;;
1693;SDS011;71975;47.068;15.408;2023-08-08T04:35:22;3.80;;;3.10;;
1693;SDS011;71975;47.068;15.408;2023-08-08T04:40:25;2.67;;;2.47;;
1693;SDS011;71975;47.068;15.408;2023-08-08T04:45:29;4.13;;;2.87;;
1693;SDS011;71975;47.068;15.408;2023-08-08T04:50:32;3.67;;;2.50;;
1693;SDS011;71975;47.068;15.408;2023-08-08T04:55:35;4.23;;;2.73;;
1693;SDS011;71975;47.068;15.408;2023-08-08T05:00:39;2.90;;;2.40;;
1693;SDS011;71975;47.068;15.408;2023-08-08T05:05:42;4.10;;;2.90;;
1693;SDS011;71975;47.068;15.408;2023-08-08T05:10:46;3.97;;;2.20;;
1693;SDS011;71975;47.068;15.408;2023-08-08T05:15:50;3.13;;;2.40;;
1693;SDS011;71975;47.068;15.408;2023-08-08T05:20:53;6.40;;;3.57;;
1693;SDS011;71975;47.068;15.408;2023-08-08T05:25:56;3.00;;;2.70;;
1693;SDS011;71975;47.068;15.408;2023-08-08T05:31:00;4.33;;;1.93;;
1693;SDS011;71975;47.068;15.408;2023-08-08T05:36:04;3.30;;;2.20;;
1693;SDS011;71975;47.068;15.408;2023-08-08T05:41:07;3.50;;;2.00;;
1693;SDS011;71975;47.068;15.408;2023-08-08T05:46:11;5.03;;;2.13;;
1693;SDS011;71975;47.068;15.408;2023-08-08T05:51:14;3.30;;;2.80;;
1693;SDS011;71975;47.068;15.408;2023-08-08T05:56:17;3.43;;;1.67;;
1693;SDS011;71975;47.068;15.408;2023-08-08T06:01:21;3.33;;;1.93;;
1693;SDS011;71975;47.068;15.408;2023-08-08T06:06:25;5.73;;;2.63;;
1693;SDS011;71975;47.068;15.408;2023-08-08T06:11:28;2.13;;;1.90;;
1693;SDS011;71975;47.068;15.408;2023-08-08T06:16:32;4.97;;;2.70;;
1693;SDS011;71975;47.068;15.408;2023-08-08T06:21:35;3.50;;;2.07;;
1693;SDS011;71975;47.068;15.408;2023-08-08T06:26:38;3.00;;;2.00;;
1693;SDS011;71975;47.068;15.408;2023-08-08T06:31:42;4.40;;;2.20;;
1693;SDS011;71975;47.068;15.408;2023-08-08T06:36:45;2.40;;;2.20;;
1693;SDS011;71975;47.068;15.408;2023-08-08T06:41:49;2.90;;;2.27;;
1693;SDS011;71975;47.068;15.408;2023-08-08T06:46:53;3.90;;;1.53;;
1693;SDS011;71975;47.068;15.408;2023-08-08T06:51:56;2.23;;;1.90;;
1693;SDS011;71975;47.068;15.408;2023-08-08T06:56:59;5.23;;;1.90;;
1693;SDS011;71975;47.068;15.408;2023-08-08T07:02:05;4.17;;;2.00;;
1693;SDS011;71975;47.068;15.408;2023-08-08T07:07:08;3.90;;;1.80;;
1693;SDS011;71975;47.068;15.408;2023-08-08T07:12:11;5.03;;;2.13;;
1693;SDS011;71975;47.068;15.408;2023-08-08T07:17:16;2.53;;;1.53;;
1693;SDS011;71975;47.068;15.408;2023-08-08T07:22:18;2.40;;;1.40;;
1693;SDS011;71975;47.068;15.408;2023-08-08T07:27:22;3.40;;;2.27;;
1693;SDS011;71975;47.068;15.408;2023-08-08T07:32:26;1.67;;;1.57;;
1693;SDS011;71975;47.068;15.408;2023-08-08T07:37:31;2.90;;;2.13;;
1693;SDS011;71975;47.068;15.408;2023-08-08T07:42:34;2.93;;;1.90;;
1693;SDS011;71975;47.068;15.408;2023-08-08T07:47:39;10.50;;;2.70;;
1693;SDS011;71975;47.068;15.408;2023-08-08T07:52:42;3.20;;;1.70;;
1693;SDS011;71975;47.068;15.408;2023-08-08T07:57:45;1.93;;;1.70;;
1693;SDS011;71975;47.068;15.408;2023-08-08T08:02:49;3.70;;;2.67;;
1693;SDS011;71975;47.068;15.408;2023-08-08T08:07:52;3.40;;;1.50;;
1693;SDS011;71975;47.068;15.408;2023-08-08T08:12:55;4.33;;;1.97;;
1693;SDS011;71975;47.068;15.408;2023-08-08T08:18:01;1.70;;;1.60;;
1693;SDS011;71975;47.068;15.408;2023-08-08T08:23:04;4.50;;;3.07;;
1693;SDS011;71975;47.068;15.408;2023-08-08T08:28:07;4.10;;;3.30;;
1693;SDS011;71975;47.068;15.408;2023-08-08T08:33:11;9.23;;;3.10;;
1693;SDS011;71975;47.068;15.408;2023-08-08T08:38:14;3.60;;;1.60;;
1693;SDS011;71975;47.068;15.408;2023-08-08T08:43:17;2.63;;;1.30;;
1693;SDS011;71975;47.068;15.408;2023-08-08T08:48:21;1.77;;;1.17;;
1693;SDS011;71975;47.068;15.408;2023-08-08T08:53:24;1.63;;;1.53;;
1693;SDS011;71975;47.068;15.408;2023-08-08T08:58:27;2.13;;;1.93;;
1693;SDS011;71975;47.068;15.408;2023-08-08T09:03:32;5.00;;;1.50;;
1693;SDS011;71975;47.068;15.408;2023-08-08T09:08:36;1.73;;;1.43;;
1693;SDS011;71975;47.068;15.408;2023-08-08T09:13:39;1.90;;;1.50;;
1693;SDS011;71975;47.068;15.408;2023-08-08T09:18:44;1.73;;;1.60;;
1693;SDS011;71975;47.068;15.408;2023-08-08T09:23:47;2.57;;;1.90;;
1693;SDS011;71975;47.068;15.408;2023-08-08T09:28:50;5.17;;;1.40;;
1693;SDS011;71975;47.068;15.408;2023-08-08T09:33:54;2.70;;;2.00;;
1693;SDS011;71975;47.068;15.408;2023-08-08T09:38:58;4.60;;;2.53;;
1693;SDS011;71975;47.068;15.408;2023-08-08T09:44:02;1.40;;;1.30;;
1693;SDS011;71975;47.068;15.408;2023-08-08T09:49:06;9.13;;;2.23;;
1693;SDS011;71975;47.068;15.408;2023-08-08T09:54:10;2.00;;;1.60;;
1693;SDS011;71975;47.068;15.408;2023-08-08T09:59:14;1.70;;;1.60;;
1693;SDS011;71975;47.068;15.408;2023-08-08T10:04:21;3.60;;;1.20;;
1693;SDS011;71975;47.068;15.408;2023-08-08T10:09:25;1.47;;;1.37;;
1693;SDS011;71975;47.068;15.408;2023-08-08T10:14:29;1.60;;;1.50;;
1693;SDS011;71975;47.068;15.408;2023-08-08T10:19:34;1.20;;;1.10;;
1693;SDS011;71975;47.068;15.408;2023-08-08T10:24:37;1.60;;;1.50;;
1693;SDS011;71975;47.068;15.408;2023-08-08T10:29:40;2.43;;;1.43;;
1693;SDS011;71975;47.068;15.408;2023-08-08T10:34:46;2.10;;;1.20;;
1693;SDS011;71975;47.068;15.408;2023-08-08T10:39:52;2.43;;;1.43;;
1693;SDS011;71975;47.068;15.408;2023-08-08T10:44:56;1.40;;;1.30;;
1693;SDS011;71975;47.068;15.408;2023-08-08T10:50:05;1.50;;;1.30;;
1693;SDS011;71975;47.068;15.408;2023-08-08T10:55:17;1.20;;;1.10;;
1693;SDS011;71975;47.068;15.408;2023-08-08T11:00:23;2.10;;;1.47;;
1693;SDS011;71975;47.068;15.408;2023-08-08T11:05:30;5.60;;;1.63;;
1693;SDS011;71975;47.068;15.408;2023-08-08T11:10:34;3.40;;;1.50;;
1693;SDS011;71975;47.068;15.408;2023-08-08T11:15:38;1.77;;;1.50;;
1693;SDS011;71975;47.068;15.408;2023-08-08T11:20:43;2.17;;;1.97;;
1693;SDS011;71975;47.068;15.408;2023-08-08T11:25:46;1.40;;;1.30;;
1693;SDS011;71975;47.068;15.408;2023-08-08T11:31:10;2.50;;;1.57;;
1693;SDS011;71975;47.068;15.408;2023-08-08T11:36:14;2.57;;;1.43;;
1693;SDS011;71975;47.068;15.408;2023-08-08T11:41:18;1.60;;;1.40;;
1693;SDS011;71975;47.068;15.408;2023-08-08T11:46:25;1.33;;;1.07;;
1693;SDS011;71975;47.068;15.408;2023-08-08T11:51:30;2.70;;;1.30;;
1693;SDS011;71975;47.068;15.408;2023-08-08T11:56:33;1.87;;;1.10;;
1693;SDS011;71975;47.068;15.408;2023-08-08T12:01:36;1.10;;;1.00;;
1693;SDS011;71975;47.068;15.408;2023-08-08T12:06:41;3.60;;;1.37;;
1693;SDS011;71975;47.068;15.408;2023-08-08T12:11:45;1.37;;;1.13;;
1693;SDS011;71975;47.068;15.408;2023-08-08T12:16:48;1.20;;;1.10;;
1693;SDS011;71975;47.068;15.408;2023-08-08T12:21:53;8.03;;;1.53;;
1693;SDS011;71975;47.068;15.408;2023-08-08T12:26:55;4.67;;;1.50;;
1693;SDS011;71975;47.068;15.408;2023-08-08T12:31:59;2.27;;;1.53;;
1693;SDS011;71975;47.068;15.408;2023-08-08T12:37:05;1.70;;;1.23;;
1693;SDS011;71975;47.068;15.408;2023-08-08T12:42:08;2.77;;;1.50;;
1693;SDS011;71975;47.068;15.408;2023-08-08T12:47:11;1.23;;;1.00;;
1693;SDS011;71975;47.068;15.408;2023-08-08T12:52:17;2.80;;;1.83;;
1693;SDS011;71975;47.068;15.408;2023-08-08T12:57:20;1.40;;;1.30;;
1693;SDS011;71975;47.068;15.408;2023-08-08T13:02:23;1.47;;;1.17;;
1693;SDS011;71975;47.068;15.408;2023-08-08T13:07:28;0.93;;;0.80;;
1693;SDS011;71975;47.068;15.408;2023-08-08T13:12:30;2.50;;;1.33;;
1693;SDS011;71975;47.068;15.408;2023-08-08T13:17:34;1.63;;;1.03;;
1693;SDS011;71975;47.068;15.408;2023-08-08T13:22:38;1.20;;;1.10;;
1693;SDS011;71975;47.068;15.408;2023-08-08T13:27:44;2.47;;;2.23;;
1693;SDS011;71975;47.068;15.408;2023-08-08T13:32:47;1.63;;;1.23;;
1693;SDS011;71975;47.068;15.408;2023-08-08T13:37:51;3.37;;;0.97;;
1693;SDS011;71975;47.068;15.408;2023-08-08T13:42:56;1.13;;;1.03;;
1693;SDS011;71975;47.068;15.408;2023-08-08T13:47:59;1.20;;;0.93;;
1693;SDS011;71975;47.068;15.408;2023-08-08T13:53:03;1.43;;;1.00;;
1693;SDS011;71975;47.068;15.408;2023-08-08T13:58:06;1.60;;;1.23;;
1693;SDS011;71975;47.068;15.408;2023-08-08T14:03:10;1.17;;;1.07;;
1693;SDS011;71975;47.068;15.408;2023-08-08T14:08:16;3.57;;;1.00;;
1693;SDS011;71975;47.068;15.408;2023-08-08T14:13:19;1.53;;;1.20;;
1693;SDS011;71975;47.068;15.408;2023-08-08T14:18:23;1.50;;;1.23;;
1693;SDS011;71975;47.068;15.408;2023-08-08T14:23:27;1.80;;;1.27;;
1693;SDS011;71975;47.068;15.408;2023-08-08T14:28:30;1.33;;;1.00;;
1693;SDS011;71975;47.068;15.408;2023-08-08T14:33:33;2.07;;;1.13;;
1693;SDS011;71975;47.068;15.408;2023-08-08T14:38:37;1.30;;;1.00;;
1693;SDS011;71975;47.068;15.408;2023-08-08T14:43:40;1.80;;;1.20;;
1693;SDS011;71975;47.068;15.408;2023-08-08T14:48:43;1.87;;;1.40;;
1693;SDS011;71975;47.068;15.408;2023-08-08T14:53:47;4.70;;;3.40;;
1693;SDS011;71975;47.068;15.408;2023-08-08T14:58:50;1.53;;;1.17;;
1693;SDS011;71975;47.068;15.408;2023-08-08T15:03:53;1.80;;;1.50;;
1693;SDS011;71975;47.068;15.408;2023-08-08T15:08:59;2.70;;;1.03;;
1693;SDS011;71975;47.068;15.408;2023-08-08T15:14:02;1.80;;;1.10;;
1693;SDS011;71975;47.068;15.408;2023-08-08T15:19:06;1.80;;;1.03;;
1693;SDS011;71975;47.068;15.408;2023-08-08T15:24:10;3.10;;;2.17;;
1693;SDS011;71975;47.068;15.408;2023-08-08T15:29:13;1.77;;;0.80;;
1693;SDS011;71975;47.068;15.408;2023-08-08T15:34:16;1.07;;;0.97;;
1693;SDS011;71975;47.068;15.408;2023-08-08T15:39:20;1.37;;;1.23;;
1693;SDS011;71975;47.068;15.408;2023-08-08T15:44:24;1.70;;;1.37;;
1693;SDS011;71975;47.068;15.408;2023-08-08T15:49:27;1.30;;;1.20;;
1693;SDS011;71975;47.068;15.408;2023-08-08T15:54:31;1.30;;;1.20;;
1693;SDS011;71975;47.068;15.408;2023-08-08T15:59:34;2.60;;;1.23;;
1693;SDS011;71975;47.068;15.408;2023-08-08T16:04:38;1.40;;;1.20;;
1693;SDS011;71975;47.068;15.408;2023-08-08T16:09:43;2.20;;;1.20;;
1693;SDS011;71975;47.068;15.408;2023-08-08T16:14:46;2.80;;;1.00;;
1693;SDS011;71975;47.068;15.408;2023-08-08T16:19:48;1.20;;;1.10;;
1693;SDS011;71975;47.068;15.408;2023-08-08T16:24:53;2.33;;;1.53;;
1693;SDS011;71975;47.068;15.408;2023-08-08T16:29:56;1.07;;;0.77;;
1693;SDS011;71975;47.068;15.408;2023-08-08T16:34:58;0.80;;;0.60;;
1693;SDS011;71975;47.068;15.408;2023-08-08T16:40:03;1.43;;;1.10;;
1693;SDS011;71975;47.068;15.408;2023-08-08T16:45:07;2.07;;;1.20;;
1693;SDS011;71975;47.068;15.408;2023-08-08T16:50:10;1.30;;;1.20;;
1693;SDS011;71975;47.068;15.408;2023-08-08T16:55:15;1.30;;;1.00;;
1693;SDS011;71975;47.068;15.408;2023-08-08T17:00:18;1.83;;;0.90;;
1693;SDS011;71975;47.068;15.408;2023-08-08T17:05:21;2.40;;;1.20;;
1693;SDS011;71975;47.068;15.408;2023-08-08T17:10:28;1.73;;;1.60;;
1693;SDS011;71975;47.068;15.408;2023-08-08T17:15:34;3.10;;;1.90;;
1693;SDS011;71975;47.068;15.408;2023-08-08T17:20:40;2.50;;;1.70;;
1693;SDS011;71975;47.068;15.408;2023-08-08T17:25:47;3.53;;;1.57;;
1693;SDS011;71975;47.068;15.408;2023-08-08T17:30:53;1.70;;;1.30;;
1693;SDS011;71975;47.068;15.408;2023-08-08T17:36:01;4.93;;;4.47;;
1693;SDS011;71975;47.068;15.408;2023-08-08T17:41:08;5.33;;;4.40;;
1693;SDS011;71975;47.068;15.408;2023-08-08T17:46:15;1.47;;;1.33;;
1693;SDS011;71975;47.068;15.408;2023-08-08T17:51:20;2.40;;;2.00;;
1693;SDS011;71975;47.068;15.408;2023-08-08T17:56:29;7.57;;;3.83;;
1693;SDS011;71975;47.068;15.408;2023-08-08T18:01:35;6.00;;;3.40;;
1693;SDS011;71975;47.068;15.408;2023-08-08T18:06:42;15.13;;;11.10;;
1693;SDS011;71975;47.068;15.408;2023-08-08T18:11:56;13.70;;;8.97;;
1693;SDS011;71975;47.068;15.408;2023-08-08T18:17:05;9.27;;;5.47;;
1693;SDS011;71975;47.068;15.408;2023-08-08T18:22:11;8.77;;;5.20;;
1693;SDS011;71975;47.068;15.408;2023-08-08T18:27:27;5.47;;;4.77;;
1693;SDS011;71975;47.068;15.408;2023-08-08T18:32:41;3.30;;;3.00;;
1693;SDS011;71975;47.068;15.408;2023-08-08T18:37:50;6.43;;;4.03;;
1693;SDS011;71975;47.068;15.408;2023-08-08T18:43:08;4.60;;;3.77;;
1693;SDS011;71975;47.068;15.408;2023-08-08T18:48:17;1.93;;;1.73;;
1693;SDS011;71975;47.068;15.408;2023-08-08T18:53:23;3.93;;;1.60;;
1693;SDS011;71975;47.068;15.408;2023-08-08T18:58:31;6.80;;;4.13;;
1693;SDS011;71975;47.068;15.408;2023-08-08T19:03:39;1.67;;;1.50;;
1693;SDS011;71975;47.068;15.408;2023-08-08T19:08:45;2.90;;;1.90;;
1693;SDS011;71975;47.068;15.408;2023-08-08T19:13:54;1.47;;;1.27;;
1693;SDS011;71975;47.068;15.408;2023-08-08T19:19:01;2.53;;;1.83;;
1693;SDS011;71975;47.068;15.408;2023-08-08T19:24:08;1.97;;;1.70;;
1693;SDS011;71975;47.068;15.408;2023-08-08T19:29:16;2.80;;;1.50;;
1693;SDS011;71975;47.068;15.408;2023-08-08T19:34:22;1.77;;;1.43;;
1693;SDS011;71975;47.068;15.408;2023-08-08T19:39:30;1.60;;;1.50;;
1693;SDS011;71975;47.068;15.408;2023-08-08T19:44:38;2.77;;;1.70;;
1693;SDS011;71975;47.068;15.408;2023-08-08T19:49:46;2.30;;;1.80;;
1693;SDS011;71975;47.068;15.408;2023-08-08T19:54:51;1.60;;;1.50;;
1693;SDS011;71975;47.068;15.408;2023-08-08T19:59:59;1.50;;;1.40;;
1693;SDS011;71975;47.068;15.408;2023-08-08T20:05:05;3.00;;;1.80;;
1693;SDS011;71975;47.068;15.408;2023-08-08T20:10:11;2.53;;;1.67;;
1693;SDS011;71975;47.068;15.408;2023-08-08T20:15:21;2.50;;;1.30;;
1693;SDS011;71975;47.068;15.408;2023-08-08T20:20:26;2.10;;;1.80;;
1693;SDS011;71975;47.068;15.408;2023-08-08T20:25:31;2.57;;;1.67;;
1693;SDS011;71975;47.068;15.408;2023-08-08T20:30:39;2.97;;;1.50;;
1693;SDS011;71975;47.068;15.408;2023-08-08T20:35:46;3.20;;;1.80;;
1693;SDS011;71975;47.068;15.408;2023-08-08T20:40:52;4.50;;;2.07;;
1693;SDS011;71975;47.068;15.408;2023-08-08T20:46:00;2.90;;;1.73;;
1693;SDS011;71975;47.068;15.408;2023-08-08T20:51:05;2.87;;;2.37;;
1693;SDS011;71975;47.068;15.408;2023-08-08T20:56:12;3.10;;;1.97;;
1693;SDS011;71975;47.068;15.408;2023-08-08T21:01:18;2.73;;;2.20;;
1693;SDS011;71975;47.068;15.408;2023-08-08T21:06:21;3.10;;;1.90;;
1693;SDS011;71975;47.068;15.408;2023-08-08T21:11:24;1.97;;;1.80;;
1693;SDS011;71975;47.068;15.408;2023-08-08T21:16:29;2.00;;;1.80;;
1693;SDS011;71975;47.068;15.408;2023-08-08T21:21:32;2.53;;;1.90;;
1693;SDS011;71975;47.068;15.408;2023-08-08T21:26:35;3.50;;;1.80;;
1693;SDS011;71975;47.068;15.408;2023-08-08T21:31:41;3.00;;;2.60;;
1693;SDS011;71975;47.068;15.408;2023-08-08T21:36:45;3.50;;;2.50;;
1693;SDS011;71975;47.068;15.408;2023-08-08T21:41:48;3.23;;;2.13;;
1693;SDS011;71975;47.068;15.408;2023-08-08T21:46:53;2.67;;;2.47;;
1693;SDS011;71975;47.068;15.408;2023-08-08T21:51:56;2.50;;;2.23;;
1693;SDS011;71975;47.068;15.408;2023-08-08T21:56:58;2.73;;;2.50;;
1693;SDS011;71975;47.068;15.408;2023-08-08T22:07:08;5.00;;;2.20;;
1693;SDS011;71975;47.068;15.408;2023-08-08T22:12:11;2.30;;;2.10;;
1693;SDS011;71975;47.068;15.408;2023-08-08T22:17:16;3.30;;;1.90;;
1693;SDS011;71975;47.068;15.408;2023-08-08T22:22:18;2.00;;;1.80;;
1693;SDS011;71975;47.068;15.408;2023-08-08T22:27:21;2.30;;;2.10;;
1693;SDS011;71975;47.068;15.408;2023-08-08T22:32:25;2.50;;;1.37;;
1693;SDS011;71975;47.068;15.408;2023-08-08T22:37:28;1.67;;;1.53;;
1693;SDS011;71975;47.068;15.408;2023-08-08T22:42:31;1.93;;;1.83;;
1693;SDS011;71975;47.068;15.408;2023-08-08T22:47:36;1.43;;;1.33;;
1693;SDS011;71975;47.068;15.408;2023-08-08T22:52:39;3.10;;;1.70;;
1693;SDS011;71975;47.068;15.408;2023-08-08T22:57:42;3.20;;;1.70;;
1693;SDS011;71975;47.068;15.408;2023-08-08T23:02:46;2.13;;;1.60;;
1693;SDS011;71975;47.068;15.408;2023-08-08T23:07:49;3.93;;;1.70;;
1693;SDS011;71975;47.068;15.408;2023-08-08T23:12:52;2.73;;;2.20;;
1693;SDS011;71975;47.068;15.408;2023-08-08T23:17:57;3.33;;;2.07;;
1693;SDS011;71975;47.068;15.408;2023-08-08T23:23:00;1.53;;;1.40;;
1693;SDS011;71975;47.068;15.408;2023-08-08T23:28:03;1.67;;;1.57;;
1693;SDS011;71975;47.068;15.408;2023-08-08T23:33:07;4.63;;;2.00;;
1693;SDS011;71975;47.068;15.408;2023-08-08T23:38:11;2.73;;;2.20;;
1693;SDS011;71975;47.068;15.408;2023-08-08T23:43:14;3.20;;;1.77;;
1693;SDS011;71975;47.068;15.408;2023-08-08T23:48:18;3.47;;;2.67;;
1693;SDS011;71975;47.068;15.408;2023-08-08T23:53:21;3.50;;;2.30;;
1693;SDS011;71975;47.068;15.408;2023-08-08T23:58:24;2.37;;;1.67;;
